sensor_id;sensor_type;location;lat;lon;timestamp;P1;durP1;ratioP1;P2;durP2;ratioP2
19525;SDS011;9907;42.676;26.348;2023-04-25T00:00:03;6.30;;;5.17;;
19525;SDS011;9907;42.676;26.348;2023-04-25T00:02:31;5.90;;;5.30;;
19525;SDS011;9907;42.676;26.348;2023-04-25T00:04:59;6.17;;;5.47;;
19525;SDS011;9907;42.676;26.348;2023-04-25T00:07:26;8.30;;;5.67;;
19525;SDS011;9907;42.676;26.348;2023-04-25T00:09:52;6.33;;;5.73;;
19525;SDS011;9907;42.676;26.348;2023-04-25T00:12:17;6.63;;;6.03;;
19525;SDS011;9907;42.676;26.348;2023-04-25T00:14:43;9.43;;;5.93;;
19525;SDS011;9907;42.676;26.348;2023-04-25T00:17:10;6.73;;;5.60;;
19525;SDS011;9907;42.676;26.348;2023-04-25T00:19:36;8.80;;;6.10;;
19525;SDS011;9907;42.676;26.348;2023-04-25T00:22:03;7.83;;;5.60;;
19525;SDS011;9907;42.676;26.348;2023-04-25T00:24:28;9.53;;;5.53;;
19525;SDS011;9907;42.676;26.348;2023-04-25T00:26:54;7.20;;;6.23;;
19525;SDS011;9907;42.676;26.348;2023-04-25T00:29:19;7.40;;;5.30;;
19525;SDS011;9907;42.676;26.348;2023-04-25T00:31:45;6.87;;;5.33;;
19525;SDS011;9907;42.676;26.348;2023-04-25T00:34:10;6.40;;;5.50;;
19525;SDS011;9907;42.676;26.348;2023-04-25T00:36:35;9.10;;;5.90;;
19525;SDS011;9907;42.676;26.348;2023-04-25T00:39:01;8.70;;;5.47;;
19525;SDS011;9907;42.676;26.348;2023-04-25T00:41:27;6.07;;;5.20;;
19525;SDS011;9907;42.676;26.348;2023-04-25T00:43:56;7.83;;;5.90;;
19525;SDS011;9907;42.676;26.348;2023-04-25T00:46:22;6.23;;;5.57;;
19525;SDS011;9907;42.676;26.348;2023-04-25T00:48:48;7.03;;;5.47;;
19525;SDS011;9907;42.676;26.348;2023-04-25T00:51:14;8.23;;;5.77;;
19525;SDS011;9907;42.676;26.348;2023-04-25T00:53:44;6.17;;;5.57;;
19525;SDS011;9907;42.676;26.348;2023-04-25T00:56:10;7.10;;;6.40;;
19525;SDS011;9907;42.676;26.348;2023-04-25T00:58:35;7.10;;;5.53;;
19525;SDS011;9907;42.676;26.348;2023-04-25T01:01:02;9.07;;;6.10;;
19525;SDS011;9907;42.676;26.348;2023-04-25T01:03:28;6.57;;;5.93;;
19525;SDS011;9907;42.676;26.348;2023-04-25T01:05:54;7.77;;;5.57;;
19525;SDS011;9907;42.676;26.348;2023-04-25T01:08:21;9.30;;;6.07;;
19525;SDS011;9907;42.676;26.348;2023-04-25T01:10:50;7.30;;;6.53;;
19525;SDS011;9907;42.676;26.348;2023-04-25T01:13:15;7.00;;;6.17;;
19525;SDS011;9907;42.676;26.348;2023-04-25T01:15:41;6.57;;;5.87;;
19525;SDS011;9907;42.676;26.348;2023-04-25T01:18:07;7.37;;;6.10;;
19525;SDS011;9907;42.676;26.348;2023-04-25T01:20:33;7.63;;;6.63;;
19525;SDS011;9907;42.676;26.348;2023-04-25T01:22:59;5.73;;;5.23;;
19525;SDS011;9907;42.676;26.348;2023-04-25T01:25:27;6.50;;;5.87;;
19525;SDS011;9907;42.676;26.348;2023-04-25T01:27:53;7.20;;;5.67;;
19525;SDS011;9907;42.676;26.348;2023-04-25T01:30:18;9.20;;;5.67;;
19525;SDS011;9907;42.676;26.348;2023-04-25T01:32:44;6.10;;;5.50;;
19525;SDS011;9907;42.676;26.348;2023-04-25T01:35:10;5.90;;;5.10;;
19525;SDS011;9907;42.676;26.348;2023-04-25T01:37:37;5.90;;;5.30;;
19525;SDS011;9907;42.676;26.348;2023-04-25T01:40:03;5.80;;;5.30;;
19525;SDS011;9907;42.676;26.348;2023-04-25T01:42:33;5.77;;;5.17;;
19525;SDS011;9907;42.676;26.348;2023-04-25T01:45:00;6.03;;;5.53;;
19525;SDS011;9907;42.676;26.348;2023-04-25T01:47:26;7.13;;;5.87;;
19525;SDS011;9907;42.676;26.348;2023-04-25T01:49:51;8.23;;;5.17;;
19525;SDS011;9907;42.676;26.348;2023-04-25T01:52:17;6.33;;;4.77;;
19525;SDS011;9907;42.676;26.348;2023-04-25T01:54:42;8.83;;;5.50;;
19525;SDS011;9907;42.676;26.348;2023-04-25T01:57:13;6.07;;;4.60;;
19525;SDS011;9907;42.676;26.348;2023-04-25T01:59:39;5.70;;;5.00;;
19525;SDS011;9907;42.676;26.348;2023-04-25T02:02:05;6.17;;;5.13;;
19525;SDS011;9907;42.676;26.348;2023-04-25T02:04:31;8.77;;;5.33;;
19525;SDS011;9907;42.676;26.348;2023-04-25T02:06:57;8.03;;;5.20;;
19525;SDS011;9907;42.676;26.348;2023-04-25T02:09:23;6.83;;;5.57;;
19525;SDS011;9907;42.676;26.348;2023-04-25T02:11:48;6.00;;;5.40;;
19525;SDS011;9907;42.676;26.348;2023-04-25T02:14:14;6.30;;;5.70;;
19525;SDS011;9907;42.676;26.348;2023-04-25T02:16:39;7.97;;;5.10;;
19525;SDS011;9907;42.676;26.348;2023-04-25T02:19:05;8.97;;;6.03;;
19525;SDS011;9907;42.676;26.348;2023-04-25T02:21:31;7.40;;;5.93;;
19525;SDS011;9907;42.676;26.348;2023-04-25T02:23:57;8.10;;;6.60;;
19525;SDS011;9907;42.676;26.348;2023-04-25T02:26:23;8.93;;;6.23;;
19525;SDS011;9907;42.676;26.348;2023-04-25T02:28:49;7.13;;;5.50;;
19525;SDS011;9907;42.676;26.348;2023-04-25T02:31:14;9.63;;;5.77;;
19525;SDS011;9907;42.676;26.348;2023-04-25T02:33:40;6.60;;;5.70;;
19525;SDS011;9907;42.676;26.348;2023-04-25T02:36:06;8.70;;;6.03;;
19525;SDS011;9907;42.676;26.348;2023-04-25T02:38:31;6.17;;;5.57;;
19525;SDS011;9907;42.676;26.348;2023-04-25T02:40:57;7.70;;;5.90;;
19525;SDS011;9907;42.676;26.348;2023-04-25T02:43:22;7.43;;;6.00;;
19525;SDS011;9907;42.676;26.348;2023-04-25T02:45:48;8.33;;;5.93;;
19525;SDS011;9907;42.676;26.348;2023-04-25T02:48:13;7.60;;;5.83;;
19525;SDS011;9907;42.676;26.348;2023-04-25T02:50:39;9.07;;;5.63;;
19525;SDS011;9907;42.676;26.348;2023-04-25T02:53:04;10.10;;;5.80;;
19525;SDS011;9907;42.676;26.348;2023-04-25T02:55:30;8.10;;;6.10;;
19525;SDS011;9907;42.676;26.348;2023-04-25T02:57:55;8.03;;;6.20;;
19525;SDS011;9907;42.676;26.348;2023-04-25T03:00:21;7.53;;;6.13;;
19525;SDS011;9907;42.676;26.348;2023-04-25T03:02:47;6.80;;;6.10;;
19525;SDS011;9907;42.676;26.348;2023-04-25T03:05:13;6.37;;;5.87;;
19525;SDS011;9907;42.676;26.348;2023-04-25T03:07:39;7.73;;;5.80;;
19525;SDS011;9907;42.676;26.348;2023-04-25T03:10:05;7.20;;;6.50;;
19525;SDS011;9907;42.676;26.348;2023-04-25T03:12:31;9.20;;;6.33;;
19525;SDS011;9907;42.676;26.348;2023-04-25T03:14:57;8.23;;;6.00;;
19525;SDS011;9907;42.676;26.348;2023-04-25T03:17:22;8.07;;;6.63;;
19525;SDS011;9907;42.676;26.348;2023-04-25T03:19:48;8.70;;;6.97;;
19525;SDS011;9907;42.676;26.348;2023-04-25T03:22:13;8.47;;;7.00;;
19525;SDS011;9907;42.676;26.348;2023-04-25T03:24:39;7.20;;;5.90;;
19525;SDS011;9907;42.676;26.348;2023-04-25T03:27:05;8.87;;;6.20;;
19525;SDS011;9907;42.676;26.348;2023-04-25T03:29:30;7.10;;;6.40;;
19525;SDS011;9907;42.676;26.348;2023-04-25T03:31:56;7.87;;;6.30;;
19525;SDS011;9907;42.676;26.348;2023-04-25T03:34:21;7.50;;;6.63;;
19525;SDS011;9907;42.676;26.348;2023-04-25T03:36:47;8.17;;;5.93;;
19525;SDS011;9907;42.676;26.348;2023-04-25T03:39:12;9.50;;;6.97;;
19525;SDS011;9907;42.676;26.348;2023-04-25T03:41:38;8.40;;;6.30;;
19525;SDS011;9907;42.676;26.348;2023-04-25T03:44:03;7.43;;;6.70;;
19525;SDS011;9907;42.676;26.348;2023-04-25T03:46:29;7.20;;;6.50;;
19525;SDS011;9907;42.676;26.348;2023-04-25T03:48:54;8.43;;;6.00;;
19525;SDS011;9907;42.676;26.348;2023-04-25T03:51:20;8.17;;;6.60;;
19525;SDS011;9907;42.676;26.348;2023-04-25T03:53:45;9.53;;;5.70;;
19525;SDS011;9907;42.676;26.348;2023-04-25T03:56:10;8.83;;;7.10;;
19525;SDS011;9907;42.676;26.348;2023-04-25T03:58:36;7.13;;;6.07;;
19525;SDS011;9907;42.676;26.348;2023-04-25T04:01:01;8.23;;;6.10;;
19525;SDS011;9907;42.676;26.348;2023-04-25T04:03:33;6.47;;;5.80;;
19525;SDS011;9907;42.676;26.348;2023-04-25T04:06:00;8.30;;;6.47;;
19525;SDS011;9907;42.676;26.348;2023-04-25T04:08:25;8.17;;;6.73;;
19525;SDS011;9907;42.676;26.348;2023-04-25T04:10:51;16.40;;;6.60;;
19525;SDS011;9907;42.676;26.348;2023-04-25T04:13:16;9.70;;;7.63;;
19525;SDS011;9907;42.676;26.348;2023-04-25T04:15:41;9.00;;;7.80;;
19525;SDS011;9907;42.676;26.348;2023-04-25T04:18:07;8.53;;;7.73;;
19525;SDS011;9907;42.676;26.348;2023-04-25T04:20:32;13.23;;;7.87;;
19525;SDS011;9907;42.676;26.348;2023-04-25T04:22:58;9.37;;;6.87;;
19525;SDS011;9907;42.676;26.348;2023-04-25T04:25:24;7.20;;;5.90;;
19525;SDS011;9907;42.676;26.348;2023-04-25T04:27:49;7.90;;;6.00;;
19525;SDS011;9907;42.676;26.348;2023-04-25T04:30:19;10.60;;;5.70;;
19525;SDS011;9907;42.676;26.348;2023-04-25T04:32:46;6.50;;;5.80;;
19525;SDS011;9907;42.676;26.348;2023-04-25T04:35:13;8.73;;;5.90;;
19525;SDS011;9907;42.676;26.348;2023-04-25T04:37:39;6.50;;;5.87;;
19525;SDS011;9907;42.676;26.348;2023-04-25T04:40:05;7.37;;;5.53;;
19525;SDS011;9907;42.676;26.348;2023-04-25T04:42:33;7.07;;;5.40;;
19525;SDS011;9907;42.676;26.348;2023-04-25T04:45:01;7.07;;;5.70;;
19525;SDS011;9907;42.676;26.348;2023-04-25T04:47:29;7.63;;;5.27;;
19525;SDS011;9907;42.676;26.348;2023-04-25T04:49:56;8.10;;;6.07;;
19525;SDS011;9907;42.676;26.348;2023-04-25T04:52:22;5.30;;;4.80;;
19525;SDS011;9907;42.676;26.348;2023-04-25T04:54:47;6.77;;;5.67;;
19525;SDS011;9907;42.676;26.348;2023-04-25T04:57:13;5.63;;;5.10;;
19525;SDS011;9907;42.676;26.348;2023-04-25T04:59:38;12.93;;;5.60;;
19525;SDS011;9907;42.676;26.348;2023-04-25T05:02:04;7.50;;;5.37;;
19525;SDS011;9907;42.676;26.348;2023-04-25T05:04:29;12.17;;;6.10;;
19525;SDS011;9907;42.676;26.348;2023-04-25T05:06:55;6.97;;;5.10;;
19525;SDS011;9907;42.676;26.348;2023-04-25T05:09:20;8.57;;;5.83;;
19525;SDS011;9907;42.676;26.348;2023-04-25T05:11:51;9.47;;;5.57;;
19525;SDS011;9907;42.676;26.348;2023-04-25T05:14:17;5.93;;;5.33;;
19525;SDS011;9907;42.676;26.348;2023-04-25T05:16:43;9.47;;;5.67;;
19525;SDS011;9907;42.676;26.348;2023-04-25T05:19:08;8.07;;;5.47;;
19525;SDS011;9907;42.676;26.348;2023-04-25T05:21:34;7.80;;;5.83;;
19525;SDS011;9907;42.676;26.348;2023-04-25T05:23:59;9.73;;;5.70;;
19525;SDS011;9907;42.676;26.348;2023-04-25T05:26:26;5.93;;;5.30;;
19525;SDS011;9907;42.676;26.348;2023-04-25T05:28:55;5.23;;;4.73;;
19525;SDS011;9907;42.676;26.348;2023-04-25T05:31:24;5.67;;;5.00;;
19525;SDS011;9907;42.676;26.348;2023-04-25T05:33:50;10.13;;;5.80;;
19525;SDS011;9907;42.676;26.348;2023-04-25T05:36:16;6.53;;;5.67;;
19525;SDS011;9907;42.676;26.348;2023-04-25T05:38:43;6.60;;;5.27;;
19525;SDS011;9907;42.676;26.348;2023-04-25T05:41:08;6.13;;;5.13;;
19525;SDS011;9907;42.676;26.348;2023-04-25T05:43:34;6.83;;;5.30;;
19525;SDS011;9907;42.676;26.348;2023-04-25T05:45:59;7.13;;;4.70;;
19525;SDS011;9907;42.676;26.348;2023-04-25T05:48:24;6.57;;;4.90;;
19525;SDS011;9907;42.676;26.348;2023-04-25T05:50:50;6.47;;;4.80;;
19525;SDS011;9907;42.676;26.348;2023-04-25T05:53:16;8.80;;;5.30;;
19525;SDS011;9907;42.676;26.348;2023-04-25T05:55:42;8.43;;;5.17;;
19525;SDS011;9907;42.676;26.348;2023-04-25T05:58:07;7.33;;;6.17;;
19525;SDS011;9907;42.676;26.348;2023-04-25T06:00:33;6.70;;;5.77;;
19525;SDS011;9907;42.676;26.348;2023-04-25T06:02:58;7.57;;;5.80;;
19525;SDS011;9907;42.676;26.348;2023-04-25T06:05:24;6.77;;;5.60;;
19525;SDS011;9907;42.676;26.348;2023-04-25T06:07:50;6.37;;;5.77;;
19525;SDS011;9907;42.676;26.348;2023-04-25T06:10:15;8.43;;;6.13;;
19525;SDS011;9907;42.676;26.348;2023-04-25T06:12:41;8.30;;;5.40;;
19525;SDS011;9907;42.676;26.348;2023-04-25T06:15:06;7.93;;;5.93;;
19525;SDS011;9907;42.676;26.348;2023-04-25T06:17:32;8.43;;;5.73;;
19525;SDS011;9907;42.676;26.348;2023-04-25T06:19:58;9.53;;;6.50;;
19525;SDS011;9907;42.676;26.348;2023-04-25T06:22:24;11.47;;;5.37;;
19525;SDS011;9907;42.676;26.348;2023-04-25T06:24:49;7.37;;;6.00;;
19525;SDS011;9907;42.676;26.348;2023-04-25T06:27:15;7.80;;;6.03;;
19525;SDS011;9907;42.676;26.348;2023-04-25T06:29:40;8.13;;;6.80;;
19525;SDS011;9907;42.676;26.348;2023-04-25T06:32:05;9.90;;;6.43;;
19525;SDS011;9907;42.676;26.348;2023-04-25T06:34:31;9.83;;;6.67;;
19525;SDS011;9907;42.676;26.348;2023-04-25T06:36:56;8.83;;;7.07;;
19525;SDS011;9907;42.676;26.348;2023-04-25T06:39:22;12.27;;;9.07;;
19525;SDS011;9907;42.676;26.348;2023-04-25T06:41:48;12.07;;;7.93;;
19525;SDS011;9907;42.676;26.348;2023-04-25T06:44:14;8.53;;;7.70;;
19525;SDS011;9907;42.676;26.348;2023-04-25T06:46:40;12.53;;;7.50;;
19525;SDS011;9907;42.676;26.348;2023-04-25T06:49:06;16.37;;;12.97;;
19525;SDS011;9907;42.676;26.348;2023-04-25T06:51:31;18.37;;;15.87;;
19525;SDS011;9907;42.676;26.348;2023-04-25T06:53:57;21.90;;;15.60;;
19525;SDS011;9907;42.676;26.348;2023-04-25T06:56:22;17.87;;;14.10;;
19525;SDS011;9907;42.676;26.348;2023-04-25T06:58:48;18.80;;;14.17;;
19525;SDS011;9907;42.676;26.348;2023-04-25T07:01:14;21.97;;;12.87;;
19525;SDS011;9907;42.676;26.348;2023-04-25T07:03:40;17.70;;;10.73;;
19525;SDS011;9907;42.676;26.348;2023-04-25T07:06:06;18.73;;;10.57;;
19525;SDS011;9907;42.676;26.348;2023-04-25T07:08:31;21.53;;;12.30;;
19525;SDS011;9907;42.676;26.348;2023-04-25T07:10:57;20.63;;;12.83;;
19525;SDS011;9907;42.676;26.348;2023-04-25T07:13:22;13.97;;;9.13;;
19525;SDS011;9907;42.676;26.348;2023-04-25T07:15:48;12.77;;;7.77;;
19525;SDS011;9907;42.676;26.348;2023-04-25T07:18:13;10.70;;;7.43;;
19525;SDS011;9907;42.676;26.348;2023-04-25T07:20:39;11.57;;;7.93;;
19525;SDS011;9907;42.676;26.348;2023-04-25T07:23:04;16.70;;;7.70;;
19525;SDS011;9907;42.676;26.348;2023-04-25T07:25:30;10.63;;;7.90;;
19525;SDS011;9907;42.676;26.348;2023-04-25T07:27:56;9.63;;;7.80;;
19525;SDS011;9907;42.676;26.348;2023-04-25T07:30:21;9.40;;;7.17;;
19525;SDS011;9907;42.676;26.348;2023-04-25T07:32:47;13.97;;;8.40;;
19525;SDS011;9907;42.676;26.348;2023-04-25T07:35:13;11.67;;;8.20;;
19525;SDS011;9907;42.676;26.348;2023-04-25T07:37:39;11.63;;;8.80;;
19525;SDS011;9907;42.676;26.348;2023-04-25T07:40:05;15.77;;;8.90;;
19525;SDS011;9907;42.676;26.348;2023-04-25T07:42:31;16.23;;;8.70;;
19525;SDS011;9907;42.676;26.348;2023-04-25T07:44:57;11.57;;;9.60;;
19525;SDS011;9907;42.676;26.348;2023-04-25T07:47:22;16.97;;;9.93;;
19525;SDS011;9907;42.676;26.348;2023-04-25T07:49:48;14.20;;;10.87;;
19525;SDS011;9907;42.676;26.348;2023-04-25T07:52:13;11.73;;;8.63;;
19525;SDS011;9907;42.676;26.348;2023-04-25T07:54:39;9.10;;;8.17;;
19525;SDS011;9907;42.676;26.348;2023-04-25T07:57:04;11.47;;;7.47;;
19525;SDS011;9907;42.676;26.348;2023-04-25T07:59:31;10.80;;;7.73;;
19525;SDS011;9907;42.676;26.348;2023-04-25T08:01:57;14.93;;;9.50;;
19525;SDS011;9907;42.676;26.348;2023-04-25T08:04:23;16.83;;;12.13;;
19525;SDS011;9907;42.676;26.348;2023-04-25T08:06:48;9.63;;;8.10;;
19525;SDS011;9907;42.676;26.348;2023-04-25T08:09:15;16.33;;;8.17;;
19525;SDS011;9907;42.676;26.348;2023-04-25T08:11:40;15.23;;;7.07;;
19525;SDS011;9907;42.676;26.348;2023-04-25T08:14:06;6.90;;;6.20;;
19525;SDS011;9907;42.676;26.348;2023-04-25T08:16:32;7.03;;;5.03;;
19525;SDS011;9907;42.676;26.348;2023-04-25T08:18:59;7.27;;;6.57;;
19525;SDS011;9907;42.676;26.348;2023-04-25T08:21:25;12.23;;;6.53;;
19525;SDS011;9907;42.676;26.348;2023-04-25T08:23:51;7.70;;;4.50;;
19525;SDS011;9907;42.676;26.348;2023-04-25T08:26:17;4.70;;;3.87;;
19525;SDS011;9907;42.676;26.348;2023-04-25T08:28:42;8.10;;;4.23;;
19525;SDS011;9907;42.676;26.348;2023-04-25T08:31:08;7.60;;;4.37;;
19525;SDS011;9907;42.676;26.348;2023-04-25T08:33:33;5.20;;;4.30;;
19525;SDS011;9907;42.676;26.348;2023-04-25T08:35:59;5.97;;;4.23;;
19525;SDS011;9907;42.676;26.348;2023-04-25T08:38:24;5.60;;;4.60;;
19525;SDS011;9907;42.676;26.348;2023-04-25T08:40:50;7.83;;;4.17;;
19525;SDS011;9907;42.676;26.348;2023-04-25T08:43:17;6.30;;;5.07;;
19525;SDS011;9907;42.676;26.348;2023-04-25T08:45:44;9.27;;;5.57;;
19525;SDS011;9907;42.676;26.348;2023-04-25T08:48:14;5.43;;;4.93;;
19525;SDS011;9907;42.676;26.348;2023-04-25T08:50:51;6.27;;;4.20;;
19525;SDS011;9907;42.676;26.348;2023-04-25T08:53:22;4.73;;;3.30;;
19525;SDS011;9907;42.676;26.348;2023-04-25T08:55:54;4.33;;;2.60;;
19525;SDS011;9907;42.676;26.348;2023-04-25T08:58:20;5.00;;;4.50;;
19525;SDS011;9907;42.676;26.348;2023-04-25T09:00:46;7.17;;;4.00;;
19525;SDS011;9907;42.676;26.348;2023-04-25T09:03:12;4.00;;;3.03;;
19525;SDS011;9907;42.676;26.348;2023-04-25T09:05:39;8.57;;;3.33;;
19525;SDS011;9907;42.676;26.348;2023-04-25T09:08:05;3.33;;;2.97;;
19525;SDS011;9907;42.676;26.348;2023-04-25T09:10:31;3.53;;;3.20;;
19525;SDS011;9907;42.676;26.348;2023-04-25T09:13:10;4.00;;;2.83;;
19525;SDS011;9907;42.676;26.348;2023-04-25T09:15:46;4.63;;;3.53;;
19525;SDS011;9907;42.676;26.348;2023-04-25T09:18:14;4.23;;;3.10;;
19525;SDS011;9907;42.676;26.348;2023-04-25T09:20:48;3.30;;;3.00;;
19525;SDS011;9907;42.676;26.348;2023-04-25T09:23:14;3.10;;;2.90;;
19525;SDS011;9907;42.676;26.348;2023-04-25T09:25:40;3.60;;;3.10;;
19525;SDS011;9907;42.676;26.348;2023-04-25T09:28:05;3.23;;;2.90;;
19525;SDS011;9907;42.676;26.348;2023-04-25T09:30:33;6.43;;;3.53;;
19525;SDS011;9907;42.676;26.348;2023-04-25T09:33:09;7.03;;;3.27;;
19525;SDS011;9907;42.676;26.348;2023-04-25T09:35:37;3.87;;;3.20;;
19525;SDS011;9907;42.676;26.348;2023-04-25T09:40:39;6.77;;;3.50;;
19525;SDS011;9907;42.676;26.348;2023-04-25T09:43:12;4.53;;;3.33;;
19525;SDS011;9907;42.676;26.348;2023-04-25T09:45:44;4.27;;;3.27;;
19525;SDS011;9907;42.676;26.348;2023-04-25T09:48:11;6.17;;;3.57;;
19525;SDS011;9907;42.676;26.348;2023-04-25T09:50:37;3.50;;;3.20;;
19525;SDS011;9907;42.676;26.348;2023-04-25T09:53:06;3.80;;;3.40;;
19525;SDS011;9907;42.676;26.348;2023-04-25T09:55:32;6.60;;;3.87;;
19525;SDS011;9907;42.676;26.348;2023-04-25T09:58:01;4.13;;;3.70;;
19525;SDS011;9907;42.676;26.348;2023-04-25T10:00:30;6.33;;;4.17;;
19525;SDS011;9907;42.676;26.348;2023-04-25T10:02:57;3.93;;;3.43;;
19525;SDS011;9907;42.676;26.348;2023-04-25T10:05:25;5.60;;;3.67;;
19525;SDS011;9907;42.676;26.348;2023-04-25T10:07:51;5.43;;;3.63;;
19525;SDS011;9907;42.676;26.348;2023-04-25T10:10:18;6.00;;;4.40;;
19525;SDS011;9907;42.676;26.348;2023-04-25T10:12:50;6.57;;;4.27;;
19525;SDS011;9907;42.676;26.348;2023-04-25T10:15:16;4.60;;;4.20;;
19525;SDS011;9907;42.676;26.348;2023-04-25T10:17:42;5.63;;;3.77;;
19525;SDS011;9907;42.676;26.348;2023-04-25T10:20:09;3.90;;;3.60;;
19525;SDS011;9907;42.676;26.348;2023-04-25T10:22:45;5.93;;;4.13;;
19525;SDS011;9907;42.676;26.348;2023-04-25T10:25:19;5.27;;;3.70;;
19525;SDS011;9907;42.676;26.348;2023-04-25T10:27:44;5.30;;;3.00;;
19525;SDS011;9907;42.676;26.348;2023-04-25T10:30:11;4.30;;;3.50;;
19525;SDS011;9907;42.676;26.348;2023-04-25T10:32:43;4.27;;;3.43;;
19525;SDS011;9907;42.676;26.348;2023-04-25T10:35:10;5.47;;;3.40;;
19525;SDS011;9907;42.676;26.348;2023-04-25T10:40:39;6.47;;;4.97;;
19525;SDS011;9907;42.676;26.348;2023-04-25T10:46:00;5.17;;;3.87;;
19525;SDS011;9907;42.676;26.348;2023-04-25T10:48:26;4.93;;;3.10;;
19525;SDS011;9907;42.676;26.348;2023-04-25T10:51:09;4.13;;;3.70;;
19525;SDS011;9907;42.676;26.348;2023-04-25T10:53:35;6.80;;;2.83;;
19525;SDS011;9907;42.676;26.348;2023-04-25T10:56:09;3.53;;;3.00;;
19525;SDS011;9907;42.676;26.348;2023-04-25T10:58:35;3.20;;;2.90;;
19525;SDS011;9907;42.676;26.348;2023-04-25T11:01:01;4.37;;;3.30;;
19525;SDS011;9907;42.676;26.348;2023-04-25T11:03:26;4.83;;;3.57;;
19525;SDS011;9907;42.676;26.348;2023-04-25T11:05:52;3.93;;;2.67;;
19525;SDS011;9907;42.676;26.348;2023-04-25T11:08:20;5.73;;;3.83;;
19525;SDS011;9907;42.676;26.348;2023-04-25T11:11:02;3.20;;;2.90;;
19525;SDS011;9907;42.676;26.348;2023-04-25T11:13:31;4.60;;;3.50;;
19525;SDS011;9907;42.676;26.348;2023-04-25T11:15:57;4.07;;;3.33;;
19525;SDS011;9907;42.676;26.348;2023-04-25T11:18:25;3.70;;;3.30;;
19525;SDS011;9907;42.676;26.348;2023-04-25T11:20:51;6.07;;;3.67;;
19525;SDS011;9907;42.676;26.348;2023-04-25T11:23:17;6.03;;;3.03;;
19525;SDS011;9907;42.676;26.348;2023-04-25T11:25:42;5.13;;;3.00;;
19525;SDS011;9907;42.676;26.348;2023-04-25T11:28:09;3.27;;;3.00;;
19525;SDS011;9907;42.676;26.348;2023-04-25T11:30:35;5.67;;;4.70;;
19525;SDS011;9907;42.676;26.348;2023-04-25T11:33:00;6.40;;;3.70;;
19525;SDS011;9907;42.676;26.348;2023-04-25T11:35:28;4.43;;;3.60;;
19525;SDS011;9907;42.676;26.348;2023-04-25T11:37:53;3.60;;;3.03;;
19525;SDS011;9907;42.676;26.348;2023-04-25T11:40:19;3.63;;;2.67;;
19525;SDS011;9907;42.676;26.348;2023-04-25T11:42:45;3.70;;;3.27;;
19525;SDS011;9907;42.676;26.348;2023-04-25T11:45:12;5.33;;;3.33;;
19525;SDS011;9907;42.676;26.348;2023-04-25T11:47:39;3.07;;;2.50;;
19525;SDS011;9907;42.676;26.348;2023-04-25T11:50:06;4.17;;;3.60;;
19525;SDS011;9907;42.676;26.348;2023-04-25T11:52:36;3.10;;;2.73;;
19525;SDS011;9907;42.676;26.348;2023-04-25T11:55:06;3.87;;;3.10;;
19525;SDS011;9907;42.676;26.348;2023-04-25T11:57:38;4.63;;;3.20;;
19525;SDS011;9907;42.676;26.348;2023-04-25T12:02:41;4.30;;;2.90;;
19525;SDS011;9907;42.676;26.348;2023-04-25T12:05:12;2.63;;;2.43;;
19525;SDS011;9907;42.676;26.348;2023-04-25T12:07:38;3.17;;;2.40;;
19525;SDS011;9907;42.676;26.348;2023-04-25T12:10:07;2.90;;;2.60;;
19525;SDS011;9907;42.676;26.348;2023-04-25T12:12:37;3.80;;;2.67;;
19525;SDS011;9907;42.676;26.348;2023-04-25T12:15:10;1.70;;;1.60;;
19525;SDS011;9907;42.676;26.348;2023-04-25T12:17:41;4.70;;;1.80;;
19525;SDS011;9907;42.676;26.348;2023-04-25T12:20:10;2.83;;;2.07;;
19525;SDS011;9907;42.676;26.348;2023-04-25T12:22:37;1.30;;;1.20;;
19525;SDS011;9907;42.676;26.348;2023-04-25T12:25:03;1.50;;;1.40;;
19525;SDS011;9907;42.676;26.348;2023-04-25T12:27:30;1.93;;;1.63;;
19525;SDS011;9907;42.676;26.348;2023-04-25T12:29:57;1.93;;;1.50;;
19525;SDS011;9907;42.676;26.348;2023-04-25T12:32:23;1.60;;;1.50;;
19525;SDS011;9907;42.676;26.348;2023-04-25T12:34:50;1.50;;;1.40;;
19525;SDS011;9907;42.676;26.348;2023-04-25T12:37:15;1.90;;;1.80;;
19525;SDS011;9907;42.676;26.348;2023-04-25T12:39:41;3.13;;;2.10;;
19525;SDS011;9907;42.676;26.348;2023-04-25T12:42:06;3.80;;;3.27;;
19525;SDS011;9907;42.676;26.348;2023-04-25T12:44:38;5.20;;;3.90;;
19525;SDS011;9907;42.676;26.348;2023-04-25T12:47:04;3.47;;;2.80;;
19525;SDS011;9907;42.676;26.348;2023-04-25T12:49:30;3.80;;;3.20;;
19525;SDS011;9907;42.676;26.348;2023-04-25T12:51:55;3.27;;;2.20;;
19525;SDS011;9907;42.676;26.348;2023-04-25T12:54:21;2.23;;;2.10;;
19525;SDS011;9907;42.676;26.348;2023-04-25T12:56:46;3.70;;;3.30;;
19525;SDS011;9907;42.676;26.348;2023-04-25T12:59:12;1.83;;;1.73;;
19525;SDS011;9907;42.676;26.348;2023-04-25T13:01:37;5.20;;;2.50;;
19525;SDS011;9907;42.676;26.348;2023-04-25T13:04:03;2.50;;;2.30;;
19525;SDS011;9907;42.676;26.348;2023-04-25T13:06:28;1.80;;;1.70;;
19525;SDS011;9907;42.676;26.348;2023-04-25T13:08:57;1.73;;;1.63;;
19525;SDS011;9907;42.676;26.348;2023-04-25T13:11:22;1.80;;;1.70;;
19525;SDS011;9907;42.676;26.348;2023-04-25T13:13:48;2.33;;;1.87;;
19525;SDS011;9907;42.676;26.348;2023-04-25T13:16:13;2.00;;;1.70;;
19525;SDS011;9907;42.676;26.348;2023-04-25T13:18:39;1.80;;;1.70;;
19525;SDS011;9907;42.676;26.348;2023-04-25T13:21:05;2.37;;;1.97;;
19525;SDS011;9907;42.676;26.348;2023-04-25T13:23:30;2.47;;;2.27;;
19525;SDS011;9907;42.676;26.348;2023-04-25T13:25:56;2.33;;;1.90;;
19525;SDS011;9907;42.676;26.348;2023-04-25T13:28:23;3.63;;;2.40;;
19525;SDS011;9907;42.676;26.348;2023-04-25T13:30:49;13.43;;;3.80;;
19525;SDS011;9907;42.676;26.348;2023-04-25T13:33:14;3.27;;;2.40;;
19525;SDS011;9907;42.676;26.348;2023-04-25T13:35:40;3.23;;;2.00;;
19525;SDS011;9907;42.676;26.348;2023-04-25T13:38:06;5.47;;;2.50;;
19525;SDS011;9907;42.676;26.348;2023-04-25T13:40:32;3.87;;;2.40;;
19525;SDS011;9907;42.676;26.348;2023-04-25T13:42:58;4.60;;;2.70;;
19525;SDS011;9907;42.676;26.348;2023-04-25T13:45:24;3.30;;;3.00;;
19525;SDS011;9907;42.676;26.348;2023-04-25T13:47:49;2.70;;;2.50;;
19525;SDS011;9907;42.676;26.348;2023-04-25T13:50:16;3.50;;;3.20;;
19525;SDS011;9907;42.676;26.348;2023-04-25T13:52:42;2.50;;;2.30;;
19525;SDS011;9907;42.676;26.348;2023-04-25T13:55:08;4.90;;;4.40;;
19525;SDS011;9907;42.676;26.348;2023-04-25T13:57:34;2.23;;;2.03;;
19525;SDS011;9907;42.676;26.348;2023-04-25T14:00:01;4.27;;;2.30;;
19525;SDS011;9907;42.676;26.348;2023-04-25T14:02:35;3.40;;;2.60;;
19525;SDS011;9907;42.676;26.348;2023-04-25T14:05:01;2.90;;;2.70;;
19525;SDS011;9907;42.676;26.348;2023-04-25T14:07:27;3.97;;;2.50;;
19525;SDS011;9907;42.676;26.348;2023-04-25T14:09:52;2.03;;;1.93;;
19525;SDS011;9907;42.676;26.348;2023-04-25T14:12:18;3.37;;;2.40;;
19525;SDS011;9907;42.676;26.348;2023-04-25T14:14:43;4.33;;;2.33;;
19525;SDS011;9907;42.676;26.348;2023-04-25T14:17:08;2.10;;;1.90;;
19525;SDS011;9907;42.676;26.348;2023-04-25T14:19:34;2.13;;;1.90;;
19525;SDS011;9907;42.676;26.348;2023-04-25T14:22:00;2.40;;;2.20;;
19525;SDS011;9907;42.676;26.348;2023-04-25T14:24:26;2.10;;;2.00;;
19525;SDS011;9907;42.676;26.348;2023-04-25T14:26:51;7.63;;;2.97;;
19525;SDS011;9907;42.676;26.348;2023-04-25T14:29:17;9.00;;;3.30;;
19525;SDS011;9907;42.676;26.348;2023-04-25T14:31:42;5.63;;;2.73;;
19525;SDS011;9907;42.676;26.348;2023-04-25T14:34:07;3.30;;;2.77;;
19525;SDS011;9907;42.676;26.348;2023-04-25T14:36:33;3.40;;;3.10;;
19525;SDS011;9907;42.676;26.348;2023-04-25T14:38:59;5.23;;;2.73;;
19525;SDS011;9907;42.676;26.348;2023-04-25T14:41:25;4.67;;;2.17;;
19525;SDS011;9907;42.676;26.348;2023-04-25T14:43:51;2.30;;;2.10;;
19525;SDS011;9907;42.676;26.348;2023-04-25T14:46:18;2.13;;;1.93;;
19525;SDS011;9907;42.676;26.348;2023-04-25T14:48:44;1.83;;;1.73;;
19525;SDS011;9907;42.676;26.348;2023-04-25T14:51:10;2.17;;;1.90;;